sensor_id;sensor_type;location;lat;lon;timestamp;temperature;humidity
12370;DHT22;6249;52.128;9.986;2023-07-13T00:04:16;19.20;99.90
12370;DHT22;6249;52.128;9.986;2023-07-13T00:14:20;18.90;99.90
12370;DHT22;6249;52.128;9.986;2023-07-13T00:24:20;18.80;99.90
12370;DHT22;6249;52.128;9.986;2023-07-13T00:34:26;18.90;99.90
12370;DHT22;6249;52.128;9.986;2023-07-13T00:44:27;18.90;99.90
12370;DHT22;6249;52.128;9.986;2023-07-13T00:54:35;18.90;99.90
12370;DHT22;6249;52.128;9.986;2023-07-13T01:04:36;18.70;99.90
12370;DHT22;6249;52.128;9.986;2023-07-13T01:14:36;18.30;99.90
12370;DHT22;6249;52.128;9.986;2023-07-13T01:24:39;18.00;99.90
12370;DHT22;6249;52.128;9.986;2023-07-13T01:34:42;17.60;99.90
12370;DHT22;6249;52.128;9.986;2023-07-13T01:44:44;17.40;99.90
12370;DHT22;6249;52.128;9.986;2023-07-13T01:54:45;17.30;99.90
12370;DHT22;6249;52.128;9.986;2023-07-13T02:04:45;17.30;99.90
12370;DHT22;6249;52.128;9.986;2023-07-13T02:14:46;17.20;99.90
12370;DHT22;6249;52.128;9.986;2023-07-13T02:24:47;17.00;99.90
12370;DHT22;6249;52.128;9.986;2023-07-13T02:34:47;17.00;99.90
12370;DHT22;6249;52.128;9.986;2023-07-13T02:44:48;16.80;99.90
12370;DHT22;6249;52.128;9.986;2023-07-13T02:54:52;16.90;99.90
12370;DHT22;6249;52.128;9.986;2023-07-13T03:04:54;16.80;99.90
12370;DHT22;6249;52.128;9.986;2023-07-13T03:14:57;16.70;99.90
12370;DHT22;6249;52.128;9.986;2023-07-13T03:24:58;16.60;99.90
12370;DHT22;6249;52.128;9.986;2023-07-13T03:34:58;16.50;99.90
12370;DHT22;6249;52.128;9.986;2023-07-13T03:45:02;16.50;99.90
12370;DHT22;6249;52.128;9.986;2023-07-13T03:55:07;16.30;99.90
12370;DHT22;6249;52.128;9.986;2023-07-13T04:05:10;16.30;99.90
12370;DHT22;6249;52.128;9.986;2023-07-13T04:15:16;16.40;99.90
12370;DHT22;6249;52.128;9.986;2023-07-13T04:25:17;16.40;99.90
12370;DHT22;6249;52.128;9.986;2023-07-13T04:35:19;16.30;99.90
12370;DHT22;6249;52.128;9.986;2023-07-13T04:45:21;16.40;99.90
12370;DHT22;6249;52.128;9.986;2023-07-13T04:55:21;16.50;99.90
12370;DHT22;6249;52.128;9.986;2023-07-13T05:05:23;16.50;99.90
12370;DHT22;6249;52.128;9.986;2023-07-13T05:15:26;16.80;99.90
12370;DHT22;6249;52.128;9.986;2023-07-13T05:25:29;17.10;99.90
12370;DHT22;6249;52.128;9.986;2023-07-13T05:35:30;17.70;99.90
12370;DHT22;6249;52.128;9.986;2023-07-13T05:45:33;17.90;99.90
12370;DHT22;6249;52.128;9.986;2023-07-13T05:55:38;18.40;99.90
12370;DHT22;6249;52.128;9.986;2023-07-13T06:05:43;18.40;99.90
12370;DHT22;6249;52.128;9.986;2023-07-13T06:15:50;18.30;99.90
12370;DHT22;6249;52.128;9.986;2023-07-13T06:25:51;18.30;99.90
12370;DHT22;6249;52.128;9.986;2023-07-13T06:35:52;18.70;99.90
12370;DHT22;6249;52.128;9.986;2023-07-13T06:45:54;18.90;99.90
12370;DHT22;6249;52.128;9.986;2023-07-13T06:55:57;19.20;99.90
12370;DHT22;6249;52.128;9.986;2023-07-13T07:06:17;19.50;99.90
12370;DHT22;6249;52.128;9.986;2023-07-13T07:16:19;19.80;99.90
12370;DHT22;6249;52.128;9.986;2023-07-13T07:26:20;19.70;99.90
12370;DHT22;6249;52.128;9.986;2023-07-13T07:36:23;20.00;99.90
12370;DHT22;6249;52.128;9.986;2023-07-13T07:46:24;20.10;99.90
12370;DHT22;6249;52.128;9.986;2023-07-13T07:56:24;20.10;99.90
12370;DHT22;6249;52.128;9.986;2023-07-13T08:06:25;20.20;99.90
12370;DHT22;6249;52.128;9.986;2023-07-13T08:16:26;20.10;99.90
12370;DHT22;6249;52.128;9.986;2023-07-13T08:26:27;20.10;99.90
12370;DHT22;6249;52.128;9.986;2023-07-13T08:36:32;20.50;99.90
12370;DHT22;6249;52.128;9.986;2023-07-13T08:46:38;20.60;99.90
12370;DHT22;6249;52.128;9.986;2023-07-13T08:56:41;20.50;99.90
12370;DHT22;6249;52.128;9.986;2023-07-13T09:07:26;20.80;99.90
12370;DHT22;6249;52.128;9.986;2023-07-13T09:17:37;21.30;99.90
12370;DHT22;6249;52.128;9.986;2023-07-13T09:27:43;22.00;99.90
12370;DHT22;6249;52.128;9.986;2023-07-13T09:37:45;22.00;99.90
12370;DHT22;6249;52.128;9.986;2023-07-13T09:47:46;22.10;99.90
12370;DHT22;6249;52.128;9.986;2023-07-13T09:57:49;22.70;99.90
12370;DHT22;6249;52.128;9.986;2023-07-13T10:07:51;22.70;99.90
12370;DHT22;6249;52.128;9.986;2023-07-13T10:17:53;23.50;98.40
12370;DHT22;6249;52.128;9.986;2023-07-13T10:38:25;23.80;97.20
12370;DHT22;6249;52.128;9.986;2023-07-13T10:48:28;24.70;96.80
12370;DHT22;6249;52.128;9.986;2023-07-13T11:19:08;26.40;91.30
12370;DHT22;6249;52.128;9.986;2023-07-13T11:49:43;26.90;90.10
12370;DHT22;6249;52.128;9.986;2023-07-13T11:59:51;26.30;89.10
12370;DHT22;6249;52.128;9.986;2023-07-13T12:09:52;27.90;86.00
12370;DHT22;6249;52.128;9.986;2023-07-13T12:19:55;27.10;85.70
12370;DHT22;6249;52.128;9.986;2023-07-13T12:30:02;29.00;81.60
12370;DHT22;6249;52.128;9.986;2023-07-13T12:40:03;27.10;82.40
12370;DHT22;6249;52.128;9.986;2023-07-13T12:50:12;26.70;88.70
12370;DHT22;6249;52.128;9.986;2023-07-13T13:10:36;27.40;81.70
12370;DHT22;6249;52.128;9.986;2023-07-13T13:20:39;26.50;79.60
12370;DHT22;6249;52.128;9.986;2023-07-13T13:30:42;26.00;83.30
12370;DHT22;6249;52.128;9.986;2023-07-13T13:40:44;25.60;89.20
12370;DHT22;6249;52.128;9.986;2023-07-13T13:50:45;26.10;84.80
12370;DHT22;6249;52.128;9.986;2023-07-13T14:00:47;25.90;89.30
12370;DHT22;6249;52.128;9.986;2023-07-13T14:10:55;30.10;76.90
12370;DHT22;6249;52.128;9.986;2023-07-13T14:20:59;30.30;71.80
12370;DHT22;6249;52.128;9.986;2023-07-13T14:31:00;29.30;72.90
12370;DHT22;6249;52.128;9.986;2023-07-13T14:41:02;27.50;76.70
12370;DHT22;6249;52.128;9.986;2023-07-13T14:51:07;27.10;92.60
12370;DHT22;6249;52.128;9.986;2023-07-13T15:01:17;27.80;91.90
12370;DHT22;6249;52.128;9.986;2023-07-13T15:11:18;26.30;93.20
12370;DHT22;6249;52.128;9.986;2023-07-13T15:21:24;25.00;97.30
12370;DHT22;6249;52.128;9.986;2023-07-13T15:31:32;23.70;99.90
12370;DHT22;6249;52.128;9.986;2023-07-13T15:41:37;22.60;99.90
12370;DHT22;6249;52.128;9.986;2023-07-13T15:51:40;21.70;99.90
12370;DHT22;6249;52.128;9.986;2023-07-13T16:01:45;21.30;99.90
12370;DHT22;6249;52.128;9.986;2023-07-13T16:11:49;20.80;99.90
12370;DHT22;6249;52.128;9.986;2023-07-13T16:21:51;20.20;99.90
12370;DHT22;6249;52.128;9.986;2023-07-13T16:32:12;19.70;99.90
12370;DHT22;6249;52.128;9.986;2023-07-13T16:42:16;19.00;99.90
12370;DHT22;6249;52.128;9.986;2023-07-13T16:52:17;18.50;99.90
12370;DHT22;6249;52.128;9.986;2023-07-13T17:12:27;18.20;99.90
12370;DHT22;6249;52.128;9.986;2023-07-13T17:22:30;18.20;99.90
12370;DHT22;6249;52.128;9.986;2023-07-13T17:32:31;17.80;99.90
12370;DHT22;6249;52.128;9.986;2023-07-13T17:42:33;17.50;99.90
12370;DHT22;6249;52.128;9.986;2023-07-13T17:52:36;17.70;99.90
12370;DHT22;6249;52.128;9.986;2023-07-13T18:02:40;18.10;99.90
12370;DHT22;6249;52.128;9.986;2023-07-13T18:12:44;18.00;99.90
12370;DHT22;6249;52.128;9.986;2023-07-13T18:22:48;18.20;99.90
12370;DHT22;6249;52.128;9.986;2023-07-13T18:32:53;18.00;99.90
12370;DHT22;6249;52.128;9.986;2023-07-13T18:42:56;17.80;99.90
12370;DHT22;6249;52.128;9.986;2023-07-13T18:52:57;18.10;99.90
12370;DHT22;6249;52.128;9.986;2023-07-13T19:03:01;17.90;99.90
12370;DHT22;6249;52.128;9.986;2023-07-13T19:13:02;17.80;99.90
12370;DHT22;6249;52.128;9.986;2023-07-13T19:23:07;17.60;99.90
12370;DHT22;6249;52.128;9.986;2023-07-13T19:33:16;17.40;99.90
12370;DHT22;6249;52.128;9.986;2023-07-13T19:43:16;17.20;99.90
12370;DHT22;6249;52.128;9.986;2023-07-13T19:53:19;17.20;99.90
12370;DHT22;6249;52.128;9.986;2023-07-13T20:03:23;17.40;99.90
12370;DHT22;6249;52.128;9.986;2023-07-13T20:13:26;17.40;99.90
12370;DHT22;6249;52.128;9.986;2023-07-13T20:23:31;17.40;99.90
12370;DHT22;6249;52.128;9.986;2023-07-13T20:33:32;17.20;99.90
12370;DHT22;6249;52.128;9.986;2023-07-13T20:43:35;17.20;99.90
12370;DHT22;6249;52.128;9.986;2023-07-13T20:53:36;17.30;99.90
12370;DHT22;6249;52.128;9.986;2023-07-13T21:03:37;17.30;99.90
12370;DHT22;6249;52.128;9.986;2023-07-13T21:13:38;17.30;99.90
12370;DHT22;6249;52.128;9.986;2023-07-13T21:23:39;17.20;99.90
12370;DHT22;6249;52.128;9.986;2023-07-13T21:33:39;17.10;99.90
12370;DHT22;6249;52.128;9.986;2023-07-13T21:43:40;17.10;99.90
12370;DHT22;6249;52.128;9.986;2023-07-13T21:53:46;17.10;99.90
12370;DHT22;6249;52.128;9.986;2023-07-13T22:03:54;17.10;99.90
12370;DHT22;6249;52.128;9.986;2023-07-13T22:13:55;16.90;99.90
12370;DHT22;6249;52.128;9.986;2023-07-13T22:23:57;17.00;99.90
12370;DHT22;6249;52.128;9.986;2023-07-13T22:33:58;17.00;99.90
12370;DHT22;6249;52.128;9.986;2023-07-13T22:43:58;17.10;99.90
12370;DHT22;6249;52.128;9.986;2023-07-13T22:54:03;17.00;99.90
12370;DHT22;6249;52.128;9.986;2023-07-13T23:04:19;17.00;99.90
12370;DHT22;6249;52.128;9.986;2023-07-13T23:14:21;16.90;99.90
12370;DHT22;6249;52.128;9.986;2023-07-13T23:24:30;16.80;99.90
12370;DHT22;6249;52.128;9.986;2023-07-13T23:34:31;16.60;99.90
12370;DHT22;6249;52.128;9.986;2023-07-13T23:44:34;16.20;99.90
12370;DHT22;6249;52.128;9.986;2023-07-13T23:54:34;16.00;99.90
